Hlavní strana
METAR-TAF:

METAR-TAF

Letiště :

Norrköping, Švédsko

zeměpisná šířka: 58-35N, zeměpisná délka: 016-09E, výška: 34 m

Aktuální stav počasí

Zpráva byla vytvořena před 32 minutami, v 17:20 UTC
Západní vítr 13 kt
Teplota 4°C
Vlhkost vzduchu 81%
Tlak 989 hPa
Viditelnost 10 km a více

METAR: ESSP 231720Z AUTO 26013KT 9999 BKN045/// 04/01 Q0989

Čas: 18:52 (17:52 UTC)


TAF: chybějící

Stav a předpovědi počasí z více než 4 000 letišť (zprávy METAR a TAF).

Červené a žluté tečky na mapě představují dostupné meteorologické stanice.

Když kurzor umístíte na tečku, zobrazí se název stanice.

Pak kliknutím zobrazíte stav a předpověď počasí.

Chcete-li změnit mapu, kliknutím na zelené tlačítko se znaménkem +mapu přiblížíte, kliknutím na zelené tlačítko se znaménkem – mapu oddálíte a kliknutím na zelené šipky přejdete na sousední mapy.


METAR-TAF: